sensor_id;sensor_type;location;lat;lon;timestamp;pressure;altitude;pressure_sealevel;temperature;humidity
6532;BME280;3299;42.004;24.868;2023-03-08T00:00:33;97443.06;;;10.71;69.78
6532;BME280;3299;42.004;24.868;2023-03-08T00:02:58;97395.28;;;10.45;69.04
6532;BME280;3299;42.004;24.868;2023-03-08T00:05:24;97454.31;;;10.60;69.38
6532;BME280;3299;42.004;24.868;2023-03-08T00:07:53;97389.34;;;10.03;70.27
6532;BME280;3299;42.004;24.868;2023-03-08T00:10:19;97399.97;;;9.89;70.90
6532;BME280;3299;42.004;24.868;2023-03-08T00:12:44;97412.72;;;9.91;71.08
6532;BME280;3299;42.004;24.868;2023-03-08T00:15:10;97411.91;;;9.70;71.90
6532;BME280;3299;42.004;24.868;2023-03-08T00:17:36;97409.31;;;9.70;72.19
6532;BME280;3299;42.004;24.868;2023-03-08T00:20:02;97395.78;;;9.57;72.25
6532;BME280;3299;42.004;24.868;2023-03-08T00:22:34;97456.66;;;9.91;72.46
6532;BME280;3299;42.004;24.868;2023-03-08T00:24:59;97447.38;;;9.88;72.62
6532;BME280;3299;42.004;24.868;2023-03-08T00:27:25;97402.69;;;9.57;72.77
6532;BME280;3299;42.004;24.868;2023-03-08T00:29:50;97407.47;;;9.61;72.77
6532;BME280;3299;42.004;24.868;2023-03-08T00:32:16;97449.81;;;10.01;72.37
6532;BME280;3299;42.004;24.868;2023-03-08T00:34:41;97364.84;;;9.46;72.52
6532;BME280;3299;42.004;24.868;2023-03-08T00:37:10;97390.03;;;9.74;72.29
6532;BME280;3299;42.004;24.868;2023-03-08T00:39:35;97353.06;;;9.53;72.28
6532;BME280;3299;42.004;24.868;2023-03-08T00:42:01;97389.19;;;9.84;72.26
6532;BME280;3299;42.004;24.868;2023-03-08T00:44:26;97387.41;;;9.85;72.12
6532;BME280;3299;42.004;24.868;2023-03-08T00:46:51;97411.97;;;10.11;71.58
6532;BME280;3299;42.004;24.868;2023-03-08T00:49:17;97415.22;;;10.13;71.81
6532;BME280;3299;42.004;24.868;2023-03-08T00:51:42;97324.88;;;9.50;72.20
6532;BME280;3299;42.004;24.868;2023-03-08T00:54:08;97366.78;;;9.74;71.93
6532;BME280;3299;42.004;24.868;2023-03-08T00:56:33;97435.69;;;10.16;71.99
6532;BME280;3299;42.004;24.868;2023-03-08T00:59:01;97425.50;;;10.03;71.79
6532;BME280;3299;42.004;24.868;2023-03-08T01:01:26;97457.41;;;10.13;78.17
6532;BME280;3299;42.004;24.868;2023-03-08T01:03:52;97448.44;;;10.17;79.15
6532;BME280;3299;42.004;24.868;2023-03-08T01:06:17;97407.50;;;9.81;79.97
6532;BME280;3299;42.004;24.868;2023-03-08T01:08:43;97392.81;;;9.62;80.74
6532;BME280;3299;42.004;24.868;2023-03-08T01:11:17;97446.41;;;10.00;81.12
6532;BME280;3299;42.004;24.868;2023-03-08T01:13:42;97443.94;;;10.10;80.41
6532;BME280;3299;42.004;24.868;2023-03-08T01:16:32;97445.69;;;9.98;80.67
6532;BME280;3299;42.004;24.868;2023-03-08T01:18:58;97428.69;;;9.64;82.10
6532;BME280;3299;42.004;24.868;2023-03-08T01:21:24;97381.03;;;9.37;82.58
6532;BME280;3299;42.004;24.868;2023-03-08T01:23:51;97446.16;;;9.72;82.20
6532;BME280;3299;42.004;24.868;2023-03-08T01:26:19;97394.28;;;9.44;82.27
6532;BME280;3299;42.004;24.868;2023-03-08T01:28:45;97429.53;;;9.65;82.24
6532;BME280;3299;42.004;24.868;2023-03-08T01:31:13;97384.13;;;9.31;81.99
6532;BME280;3299;42.004;24.868;2023-03-08T01:33:40;97444.78;;;9.68;82.30
6532;BME280;3299;42.004;24.868;2023-03-08T01:36:07;97434.63;;;9.56;82.14
6532;BME280;3299;42.004;24.868;2023-03-08T01:38:34;97446.47;;;9.58;81.86
6532;BME280;3299;42.004;24.868;2023-03-08T01:41:01;97431.22;;;9.44;82.30
6532;BME280;3299;42.004;24.868;2023-03-08T01:43:29;97350.41;;;9.01;82.19
6532;BME280;3299;42.004;24.868;2023-03-08T01:46:13;97445.56;;;9.37;82.85
6532;BME280;3299;42.004;24.868;2023-03-08T01:48:44;97439.28;;;9.19;84.12
6532;BME280;3299;42.004;24.868;2023-03-08T01:51:14;97447.97;;;9.18;83.69
6532;BME280;3299;42.004;24.868;2023-03-08T01:53:44;97402.78;;;8.70;84.76
6532;BME280;3299;42.004;24.868;2023-03-08T01:56:14;97463.47;;;8.85;86.16
6532;BME280;3299;42.004;24.868;2023-03-08T01:58:44;97460.78;;;8.87;85.69
6532;BME280;3299;42.004;24.868;2023-03-08T02:01:11;97448.34;;;8.81;85.67
6532;BME280;3299;42.004;24.868;2023-03-08T02:03:36;97402.28;;;8.43;86.49
6532;BME280;3299;42.004;24.868;2023-03-08T02:06:02;97447.03;;;8.75;85.95
6532;BME280;3299;42.004;24.868;2023-03-08T02:08:29;97432.03;;;8.69;84.93
6532;BME280;3299;42.004;24.868;2023-03-08T02:10:56;97427.59;;;8.60;84.95
6532;BME280;3299;42.004;24.868;2023-03-08T02:13:22;97439.66;;;8.71;85.09
6532;BME280;3299;42.004;24.868;2023-03-08T02:15:49;97395.22;;;8.34;85.79
6532;BME280;3299;42.004;24.868;2023-03-08T02:18:15;97450.13;;;8.58;86.02
6532;BME280;3299;42.004;24.868;2023-03-08T02:20:41;97450.78;;;8.49;86.30
6532;BME280;3299;42.004;24.868;2023-03-08T02:23:17;97393.47;;;8.24;85.53
6532;BME280;3299;42.004;24.868;2023-03-08T02:25:52;97448.47;;;8.79;79.33
6532;BME280;3299;42.004;24.868;2023-03-08T02:28:20;97400.03;;;8.61;78.13
6532;BME280;3299;42.004;24.868;2023-03-08T02:30:45;97440.13;;;8.87;77.49
6532;BME280;3299;42.004;24.868;2023-03-08T02:33:11;97446.25;;;8.97;77.44
6532;BME280;3299;42.004;24.868;2023-03-08T02:35:36;97455.84;;;8.95;77.66
6532;BME280;3299;42.004;24.868;2023-03-08T02:38:03;97451.72;;;8.92;77.56
6532;BME280;3299;42.004;24.868;2023-03-08T02:40:28;97364.31;;;8.34;77.84
6532;BME280;3299;42.004;24.868;2023-03-08T02:42:54;97370.88;;;8.38;77.84
6532;BME280;3299;42.004;24.868;2023-03-08T02:45:21;97451.97;;;8.89;78.34
6532;BME280;3299;42.004;24.868;2023-03-08T02:47:47;97427.81;;;8.79;77.56
6532;BME280;3299;42.004;24.868;2023-03-08T02:50:12;97416.00;;;8.66;77.47
6532;BME280;3299;42.004;24.868;2023-03-08T02:52:37;97434.16;;;8.75;78.37
6532;BME280;3299;42.004;24.868;2023-03-08T02:55:03;97456.91;;;8.81;78.21
6532;BME280;3299;42.004;24.868;2023-03-08T02:57:28;97435.56;;;8.68;78.28
6532;BME280;3299;42.004;24.868;2023-03-08T02:59:54;97458.56;;;8.93;77.41
6532;BME280;3299;42.004;24.868;2023-03-08T03:02:19;97466.50;;;9.01;73.83
6532;BME280;3299;42.004;24.868;2023-03-08T03:04:45;97440.34;;;8.95;73.19
6532;BME280;3299;42.004;24.868;2023-03-08T03:07:10;97458.66;;;9.03;73.21
6532;BME280;3299;42.004;24.868;2023-03-08T03:09:35;97450.69;;;8.95;73.90
6532;BME280;3299;42.004;24.868;2023-03-08T03:12:01;97442.63;;;8.77;73.17
6532;BME280;3299;42.004;24.868;2023-03-08T03:14:27;97469.56;;;8.84;73.83
6532;BME280;3299;42.004;24.868;2023-03-08T03:16:53;97467.34;;;8.80;74.16
6532;BME280;3299;42.004;24.868;2023-03-08T03:19:18;97423.59;;;8.45;74.22
6532;BME280;3299;42.004;24.868;2023-03-08T03:21:44;97467.22;;;8.59;76.53
6532;BME280;3299;42.004;24.868;2023-03-08T03:24:09;97425.56;;;8.31;78.94
6532;BME280;3299;42.004;24.868;2023-03-08T03:26:35;97437.88;;;8.27;81.09
6532;BME280;3299;42.004;24.868;2023-03-08T03:29:00;97463.00;;;8.47;81.87
6532;BME280;3299;42.004;24.868;2023-03-08T03:31:26;97422.66;;;8.35;79.69
6532;BME280;3299;42.004;24.868;2023-03-08T03:33:52;97420.28;;;8.21;76.90
6532;BME280;3299;42.004;24.868;2023-03-08T03:36:20;97485.72;;;8.53;76.86
6532;BME280;3299;42.004;24.868;2023-03-08T03:38:46;97487.13;;;8.57;75.44
6532;BME280;3299;42.004;24.868;2023-03-08T03:41:17;97386.63;;;8.01;73.84
6532;BME280;3299;42.004;24.868;2023-03-08T03:43:44;97483.38;;;8.61;73.63
6532;BME280;3299;42.004;24.868;2023-03-08T03:46:12;97445.88;;;8.35;74.17
6532;BME280;3299;42.004;24.868;2023-03-08T03:48:38;97385.34;;;8.06;74.25
6532;BME280;3299;42.004;24.868;2023-03-08T03:51:06;97437.53;;;8.32;75.10
6532;BME280;3299;42.004;24.868;2023-03-08T03:53:33;97439.66;;;8.38;74.68
6532;BME280;3299;42.004;24.868;2023-03-08T03:58:36;97457.25;;;8.44;74.40
6532;BME280;3299;42.004;24.868;2023-03-08T04:01:17;97499.34;;;8.77;73.92
6532;BME280;3299;42.004;24.868;2023-03-08T04:03:45;97517.41;;;8.88;73.02
6532;BME280;3299;42.004;24.868;2023-03-08T04:06:13;97513.88;;;8.78;72.63
6532;BME280;3299;42.004;24.868;2023-03-08T04:08:38;97424.91;;;8.05;73.54
6532;BME280;3299;42.004;24.868;2023-03-08T04:11:10;97527.03;;;8.41;73.84
6532;BME280;3299;42.004;24.868;2023-03-08T04:13:37;97463.28;;;7.97;75.02
6532;BME280;3299;42.004;24.868;2023-03-08T04:16:13;97466.13;;;8.05;74.47
6532;BME280;3299;42.004;24.868;2023-03-08T04:18:42;97518.09;;;8.23;74.46
6532;BME280;3299;42.004;24.868;2023-03-08T04:21:07;97521.50;;;8.23;74.12
6532;BME280;3299;42.004;24.868;2023-03-08T04:23:33;97506.56;;;8.16;74.77
6532;BME280;3299;42.004;24.868;2023-03-08T04:25:59;97466.66;;;7.87;74.28
6532;BME280;3299;42.004;24.868;2023-03-08T04:28:25;97524.22;;;8.33;72.80
6532;BME280;3299;42.004;24.868;2023-03-08T04:30:50;97517.16;;;8.24;73.05
6532;BME280;3299;42.004;24.868;2023-03-08T04:33:16;97524.53;;;8.28;73.21
6532;BME280;3299;42.004;24.868;2023-03-08T04:35:41;97466.28;;;7.80;73.55
6532;BME280;3299;42.004;24.868;2023-03-08T04:38:06;97488.06;;;7.87;74.46
6532;BME280;3299;42.004;24.868;2023-03-08T04:40:32;97539.66;;;8.22;76.37
6532;BME280;3299;42.004;24.868;2023-03-08T04:42:57;97518.13;;;8.10;77.60
6532;BME280;3299;42.004;24.868;2023-03-08T04:45:23;97484.00;;;7.96;75.70
6532;BME280;3299;42.004;24.868;2023-03-08T04:47:48;97481.38;;;7.85;76.08
6532;BME280;3299;42.004;24.868;2023-03-08T04:50:14;97479.44;;;7.88;73.54
6532;BME280;3299;42.004;24.868;2023-03-08T04:52:39;97497.47;;;7.99;72.44
6532;BME280;3299;42.004;24.868;2023-03-08T04:55:05;97508.88;;;8.08;72.53
6532;BME280;3299;42.004;24.868;2023-03-08T04:57:31;97493.22;;;7.87;73.37
6532;BME280;3299;42.004;24.868;2023-03-08T04:59:56;97532.22;;;7.94;74.98
6532;BME280;3299;42.004;24.868;2023-03-08T05:02:22;97482.41;;;7.82;73.14
6532;BME280;3299;42.004;24.868;2023-03-08T05:04:48;97494.38;;;7.83;74.93
6532;BME280;3299;42.004;24.868;2023-03-08T05:07:14;97538.53;;;8.13;74.82
6532;BME280;3299;42.004;24.868;2023-03-08T05:09:39;97537.28;;;7.95;76.92
6532;BME280;3299;42.004;24.868;2023-03-08T05:12:05;97547.47;;;8.20;77.22
6532;BME280;3299;42.004;24.868;2023-03-08T05:14:30;97533.44;;;8.24;77.90
6532;BME280;3299;42.004;24.868;2023-03-08T05:16:56;97493.50;;;7.95;76.46
6532;BME280;3299;42.004;24.868;2023-03-08T05:19:22;97543.06;;;8.33;75.63
6532;BME280;3299;42.004;24.868;2023-03-08T05:21:48;97531.81;;;8.23;75.26
6532;BME280;3299;42.004;24.868;2023-03-08T05:24:13;97497.72;;;7.96;74.90
6532;BME280;3299;42.004;24.868;2023-03-08T05:26:38;97524.22;;;8.09;74.92
6532;BME280;3299;42.004;24.868;2023-03-08T05:29:04;97545.25;;;8.03;75.22
6532;BME280;3299;42.004;24.868;2023-03-08T05:31:31;97537.47;;;7.92;75.68
6532;BME280;3299;42.004;24.868;2023-03-08T05:33:57;97483.31;;;7.70;75.40
6532;BME280;3299;42.004;24.868;2023-03-08T05:36:22;97490.72;;;7.75;75.21
6532;BME280;3299;42.004;24.868;2023-03-08T05:38:54;97548.78;;;8.26;73.16
6532;BME280;3299;42.004;24.868;2023-03-08T05:41:20;97483.28;;;7.94;73.51
6532;BME280;3299;42.004;24.868;2023-03-08T05:43:45;97538.66;;;8.35;73.26
6532;BME280;3299;42.004;24.868;2023-03-08T05:46:13;97490.16;;;8.17;72.84
6532;BME280;3299;42.004;24.868;2023-03-08T05:48:39;97490.78;;;8.20;73.15
6532;BME280;3299;42.004;24.868;2023-03-08T05:51:11;97487.66;;;8.28;73.24
6532;BME280;3299;42.004;24.868;2023-03-08T05:53:37;97523.44;;;8.43;73.35
6532;BME280;3299;42.004;24.868;2023-03-08T05:56:10;97530.59;;;8.51;73.07
6532;BME280;3299;42.004;24.868;2023-03-08T05:58:36;97535.41;;;8.55;72.84
6532;BME280;3299;42.004;24.868;2023-03-08T06:01:18;97496.44;;;8.25;72.73
6532;BME280;3299;42.004;24.868;2023-03-08T06:03:45;97518.28;;;8.43;72.35
6532;BME280;3299;42.004;24.868;2023-03-08T06:06:11;97510.44;;;8.45;71.26
6532;BME280;3299;42.004;24.868;2023-03-08T06:08:36;97512.19;;;8.44;71.66
6532;BME280;3299;42.004;24.868;2023-03-08T06:11:02;97523.00;;;8.60;72.10
6532;BME280;3299;42.004;24.868;2023-03-08T06:13:28;97497.19;;;8.49;71.25
6532;BME280;3299;42.004;24.868;2023-03-08T06:15:55;97541.19;;;8.81;71.25
6532;BME280;3299;42.004;24.868;2023-03-08T06:18:21;97544.38;;;8.95;70.17
6532;BME280;3299;42.004;24.868;2023-03-08T06:20:58;97587.22;;;9.31;69.96
6532;BME280;3299;42.004;24.868;2023-03-08T06:23:24;97604.78;;;9.48;69.31
6532;BME280;3299;42.004;24.868;2023-03-08T06:25:50;97594.34;;;9.49;67.95
6532;BME280;3299;42.004;24.868;2023-03-08T06:28:15;97590.34;;;9.56;68.27
6532;BME280;3299;42.004;24.868;2023-03-08T06:30:41;97543.19;;;9.32;67.46
6532;BME280;3299;42.004;24.868;2023-03-08T06:33:07;97613.59;;;9.78;67.39
6532;BME280;3299;42.004;24.868;2023-03-08T06:35:32;97609.25;;;9.89;66.94
6532;BME280;3299;42.004;24.868;2023-03-08T06:37:57;97609.34;;;9.88;66.79
6532;BME280;3299;42.004;24.868;2023-03-08T06:40:23;97570.97;;;9.73;66.53
6532;BME280;3299;42.004;24.868;2023-03-08T06:42:48;97585.03;;;9.90;72.22
6532;BME280;3299;42.004;24.868;2023-03-08T06:45:14;97640.91;;;10.24;72.69
6532;BME280;3299;42.004;24.868;2023-03-08T06:47:39;97632.03;;;10.38;73.21
6532;BME280;3299;42.004;24.868;2023-03-08T06:50:05;97589.44;;;10.21;73.60
6532;BME280;3299;42.004;24.868;2023-03-08T06:52:30;97632.94;;;10.48;72.75
6532;BME280;3299;42.004;24.868;2023-03-08T06:55:02;97618.38;;;10.47;72.87
6532;BME280;3299;42.004;24.868;2023-03-08T06:57:27;97630.09;;;10.62;73.03
6532;BME280;3299;42.004;24.868;2023-03-08T06:59:53;97631.78;;;10.72;72.46
6532;BME280;3299;42.004;24.868;2023-03-08T07:02:18;97602.75;;;10.69;72.36
6532;BME280;3299;42.004;24.868;2023-03-08T07:04:44;97617.91;;;10.94;70.07
6532;BME280;3299;42.004;24.868;2023-03-08T07:07:09;97626.00;;;11.00;69.69
6532;BME280;3299;42.004;24.868;2023-03-08T07:09:34;97584.03;;;10.97;68.64
6532;BME280;3299;42.004;24.868;2023-03-08T07:12:00;97618.50;;;11.27;68.81
6532;BME280;3299;42.004;24.868;2023-03-08T07:14:25;97609.66;;;11.30;68.86
6532;BME280;3299;42.004;24.868;2023-03-08T07:16:51;97672.06;;;11.68;67.64
6532;BME280;3299;42.004;24.868;2023-03-08T07:19:16;97675.59;;;11.67;67.53
6532;BME280;3299;42.004;24.868;2023-03-08T07:21:41;97685.03;;;11.68;67.14
6532;BME280;3299;42.004;24.868;2023-03-08T07:24:09;97665.97;;;11.58;68.00
6532;BME280;3299;42.004;24.868;2023-03-08T07:26:35;97646.97;;;11.48;68.10
6532;BME280;3299;42.004;24.868;2023-03-08T07:29:00;97646.97;;;11.48;68.68
6532;BME280;3299;42.004;24.868;2023-03-08T07:31:25;97676.53;;;11.66;68.39
6532;BME280;3299;42.004;24.868;2023-03-08T07:33:53;97621.34;;;11.45;68.29
6532;BME280;3299;42.004;24.868;2023-03-08T07:36:18;97642.47;;;11.70;67.98
6532;BME280;3299;42.004;24.868;2023-03-08T07:38:44;97624.72;;;11.66;67.72
6532;BME280;3299;42.004;24.868;2023-03-08T07:41:11;97624.25;;;11.81;67.39
6532;BME280;3299;42.004;24.868;2023-03-08T07:43:37;97680.94;;;12.14;67.17
6532;BME280;3299;42.004;24.868;2023-03-08T07:46:03;97654.44;;;12.01;67.23
6532;BME280;3299;42.004;24.868;2023-03-08T07:48:30;97630.00;;;11.94;66.72
6532;BME280;3299;42.004;24.868;2023-03-08T07:51:03;97677.97;;;12.19;66.76
6532;BME280;3299;42.004;24.868;2023-03-08T07:53:32;97684.00;;;12.29;66.63
6532;BME280;3299;42.004;24.868;2023-03-08T07:55:58;97641.25;;;12.14;65.75
6532;BME280;3299;42.004;24.868;2023-03-08T07:58:25;97680.50;;;12.49;64.39
6532;BME280;3299;42.004;24.868;2023-03-08T08:00:50;97636.63;;;12.36;64.02
6532;BME280;3299;42.004;24.868;2023-03-08T08:03:16;97676.97;;;12.69;63.72
6532;BME280;3299;42.004;24.868;2023-03-08T08:05:41;97589.94;;;12.27;63.34
6532;BME280;3299;42.004;24.868;2023-03-08T08:08:06;97679.56;;;12.88;62.89
6532;BME280;3299;42.004;24.868;2023-03-08T08:10:32;97678.06;;;12.95;62.83
6532;BME280;3299;42.004;24.868;2023-03-08T08:12:57;97618.75;;;12.71;62.20
6532;BME280;3299;42.004;24.868;2023-03-08T08:15:23;97675.75;;;13.11;61.66
6532;BME280;3299;42.004;24.868;2023-03-08T08:17:50;97677.22;;;13.23;61.39
6532;BME280;3299;42.004;24.868;2023-03-08T08:20:16;97630.09;;;12.99;61.40
6532;BME280;3299;42.004;24.868;2023-03-08T08:22:41;97669.69;;;13.39;61.21
6532;BME280;3299;42.004;24.868;2023-03-08T08:25:07;97668.31;;;13.44;61.00
6532;BME280;3299;42.004;24.868;2023-03-08T08:27:33;97672.50;;;13.64;60.63
6532;BME280;3299;42.004;24.868;2023-03-08T08:30:03;97615.03;;;13.31;60.44
6532;BME280;3299;42.004;24.868;2023-03-08T08:32:29;97676.56;;;13.76;60.61
6532;BME280;3299;42.004;24.868;2023-03-08T08:34:54;97653.69;;;13.80;59.78
6532;BME280;3299;42.004;24.868;2023-03-08T08:37:20;97635.47;;;13.80;59.35
6532;BME280;3299;42.004;24.868;2023-03-08T08:39:45;97664.50;;;14.12;58.50
6532;BME280;3299;42.004;24.868;2023-03-08T08:42:10;97653.00;;;14.14;58.11
6532;BME280;3299;42.004;24.868;2023-03-08T08:44:36;97641.75;;;14.14;57.59
6532;BME280;3299;42.004;24.868;2023-03-08T08:47:01;97635.03;;;14.21;56.54
6532;BME280;3299;42.004;24.868;2023-03-08T08:49:27;97634.75;;;14.24;55.70
6532;BME280;3299;42.004;24.868;2023-03-08T08:51:52;97689.13;;;14.62;55.74
6532;BME280;3299;42.004;24.868;2023-03-08T08:54:18;97669.75;;;14.56;55.32
6532;BME280;3299;42.004;24.868;2023-03-08T08:56:43;97682.09;;;14.72;55.09
6532;BME280;3299;42.004;24.868;2023-03-08T08:59:10;97691.03;;;14.87;54.00
6532;BME280;3299;42.004;24.868;2023-03-08T09:01:36;97655.16;;;14.63;52.61
6532;BME280;3299;42.004;24.868;2023-03-08T09:04:11;97681.13;;;14.73;52.17
6532;BME280;3299;42.004;24.868;2023-03-08T09:06:38;97647.47;;;14.62;52.04
6532;BME280;3299;42.004;24.868;2023-03-08T09:09:04;97683.22;;;14.87;51.73
6532;BME280;3299;42.004;24.868;2023-03-08T09:11:30;97683.81;;;14.81;52.81
6532;BME280;3299;42.004;24.868;2023-03-08T09:13:55;97689.16;;;14.97;52.84
6532;BME280;3299;42.004;24.868;2023-03-08T09:16:29;97671.22;;;14.94;53.07
6532;BME280;3299;42.004;24.868;2023-03-08T09:18:55;97638.56;;;14.82;51.18
6532;BME280;3299;42.004;24.868;2023-03-08T09:21:22;97684.00;;;15.22;51.51
6532;BME280;3299;42.004;24.868;2023-03-08T09:23:48;97679.91;;;15.20;51.69
6532;BME280;3299;42.004;24.868;2023-03-08T09:26:13;97680.97;;;15.27;51.98
6532;BME280;3299;42.004;24.868;2023-03-08T09:28:39;97629.00;;;15.08;52.01
6532;BME280;3299;42.004;24.868;2023-03-08T09:31:10;97673.63;;;15.48;52.07
6532;BME280;3299;42.004;24.868;2023-03-08T09:33:42;97675.97;;;15.59;51.04
6532;BME280;3299;42.004;24.868;2023-03-08T09:36:08;97629.88;;;15.34;51.19
6532;BME280;3299;42.004;24.868;2023-03-08T09:38:33;97664.28;;;15.63;51.55
6532;BME280;3299;42.004;24.868;2023-03-08T09:46:22;97613.41;;;15.59;49.90
6532;BME280;3299;42.004;24.868;2023-03-08T09:48:52;97618.69;;;15.75;50.21
6532;BME280;3299;42.004;24.868;2023-03-08T09:51:19;97666.78;;;16.14;50.85
6532;BME280;3299;42.004;24.868;2023-03-08T09:53:50;97667.81;;;16.21;50.82
6532;BME280;3299;42.004;24.868;2023-03-08T09:56:31;97670.78;;;16.34;49.49
6532;BME280;3299;42.004;24.868;2023-03-08T09:59:07;97671.09;;;16.31;49.94
6532;BME280;3299;42.004;24.868;2023-03-08T10:09:42;97654.88;;;16.45;48.33
6532;BME280;3299;42.004;24.868;2023-03-08T10:14:52;97642.78;;;16.44;46.45
6532;BME280;3299;42.004;24.868;2023-03-08T10:17:21;97654.56;;;16.64;44.76
6532;BME280;3299;42.004;24.868;2023-03-08T10:20:00;97672.56;;;16.75;44.53
6532;BME280;3299;42.004;24.868;2023-03-08T10:22:33;97667.97;;;16.69;44.17
6532;BME280;3299;42.004;24.868;2023-03-08T10:25:26;97632.19;;;16.53;44.34
6532;BME280;3299;42.004;24.868;2023-03-08T10:27:57;97618.16;;;16.62;44.51
6532;BME280;3299;42.004;24.868;2023-03-08T10:30:26;97588.94;;;16.59;44.91
6532;BME280;3299;42.004;24.868;2023-03-08T10:32:55;97626.53;;;16.90;43.49
6532;BME280;3299;42.004;24.868;2023-03-08T10:35:37;97663.75;;;17.32;43.59
6532;BME280;3299;42.004;24.868;2023-03-08T10:38:04;97650.19;;;17.20;42.68
6532;BME280;3299;42.004;24.868;2023-03-08T10:40:38;97628.78;;;17.01;42.58
6532;BME280;3299;42.004;24.868;2023-03-08T10:43:05;97587.81;;;16.85;42.42
6532;BME280;3299;42.004;24.868;2023-03-08T10:45:30;97644.50;;;17.25;42.17
6532;BME280;3299;42.004;24.868;2023-03-08T10:48:01;97638.25;;;17.42;42.02
6532;BME280;3299;42.004;24.868;2023-03-08T10:50:29;97640.53;;;17.61;41.65
6532;BME280;3299;42.004;24.868;2023-03-08T10:53:07;97640.78;;;17.90;41.20
6532;BME280;3299;42.004;24.868;2023-03-08T10:55:43;97636.91;;;18.16;40.43
6532;BME280;3299;42.004;24.868;2023-03-08T10:58:26;97569.44;;;17.88;40.32
6532;BME280;3299;42.004;24.868;2023-03-08T11:00:55;97626.22;;;18.26;40.19
6532;BME280;3299;42.004;24.868;2023-03-08T11:03:22;97622.13;;;18.23;40.06
6532;BME280;3299;42.004;24.868;2023-03-08T11:08:28;97622.00;;;18.17;40.09
6532;BME280;3299;42.004;24.868;2023-03-08T11:11:19;97623.97;;;18.15;40.13
6532;BME280;3299;42.004;24.868;2023-03-08T11:13:47;97616.16;;;18.07;40.48
6532;BME280;3299;42.004;24.868;2023-03-08T11:35:30;97554.63;;;17.80;39.71
6532;BME280;3299;42.004;24.868;2023-03-08T11:38:18;97587.06;;;18.02;39.07
6532;BME280;3299;42.004;24.868;2023-03-08T11:41:05;97588.00;;;18.09;39.59
6532;BME280;3299;42.004;24.868;2023-03-08T11:43:53;97576.97;;;18.21;39.43
6532;BME280;3299;42.004;24.868;2023-03-08T11:57:37;97537.47;;;17.70;38.61
6532;BME280;3299;42.004;24.868;2023-03-08T12:00:13;97523.84;;;17.44;39.28
6532;BME280;3299;42.004;24.868;2023-03-08T12:02:46;97547.25;;;17.84;39.19
6532;BME280;3299;42.004;24.868;2023-03-08T12:05:33;97559.72;;;18.04;39.25
6532;BME280;3299;42.004;24.868;2023-03-08T12:08:21;97552.03;;;18.03;39.21
6532;BME280;3299;42.004;24.868;2023-03-08T12:13:35;97507.91;;;17.69;40.32
6532;BME280;3299;42.004;24.868;2023-03-08T12:16:22;97560.31;;;18.14;40.55
6532;BME280;3299;42.004;24.868;2023-03-08T12:18:53;97550.56;;;18.31;39.67
6532;BME280;3299;42.004;24.868;2023-03-08T12:27:27;97557.50;;;18.24;39.52
6532;BME280;3299;42.004;24.868;2023-03-08T12:32:23;97505.84;;;18.10;40.16
6532;BME280;3299;42.004;24.868;2023-03-08T12:35:23;97533.22;;;18.30;39.69
6532;BME280;3299;42.004;24.868;2023-03-08T12:38:03;97531.03;;;18.41;39.88
6532;BME280;3299;42.004;24.868;2023-03-08T12:40:44;97478.34;;;18.36;39.32
6532;BME280;3299;42.004;24.868;2023-03-08T12:45:47;97549.50;;;18.48;39.16
6532;BME280;3299;42.004;24.868;2023-03-08T12:48:27;97484.22;;;18.16;39.13
6532;BME280;3299;42.004;24.868;2023-03-08T12:51:04;97543.59;;;18.46;36.62
6532;BME280;3299;42.004;24.868;2023-03-08T12:59:27;97529.31;;;19.08;37.49
6532;BME280;3299;42.004;24.868;2023-03-08T13:04:35;97490.16;;;19.06;35.68
6532;BME280;3299;42.004;24.868;2023-03-08T13:09:35;97525.38;;;19.55;34.49
6532;BME280;3299;42.004;24.868;2023-03-08T13:20:23;97525.25;;;19.20;33.24
6532;BME280;3299;42.004;24.868;2023-03-08T13:23:01;97528.69;;;19.06;34.56
6532;BME280;3299;42.004;24.868;2023-03-08T13:26:00;97524.63;;;19.18;35.29
6532;BME280;3299;42.004;24.868;2023-03-08T13:28:34;97529.47;;;19.29;33.16
6532;BME280;3299;42.004;24.868;2023-03-08T13:31:15;97512.72;;;19.30;33.51
6532;BME280;3299;42.004;24.868;2023-03-08T13:33:53;97510.09;;;19.44;33.31
6532;BME280;3299;42.004;24.868;2023-03-08T13:36:24;97481.59;;;19.41;33.37
6532;BME280;3299;42.004;24.868;2023-03-08T13:44:02;97479.22;;;20.11;32.52
6532;BME280;3299;42.004;24.868;2023-03-08T13:46:28;97479.56;;;20.08;32.54
6532;BME280;3299;42.004;24.868;2023-03-08T13:48:53;97480.22;;;20.10;32.41
6532;BME280;3299;42.004;24.868;2023-03-08T13:51:21;97522.81;;;20.68;32.06
6532;BME280;3299;42.004;24.868;2023-03-08T13:53:49;97510.84;;;20.66;32.80
6532;BME280;3299;42.004;24.868;2023-03-08T13:56:26;97507.25;;;20.46;31.96
6532;BME280;3299;42.004;24.868;2023-03-08T13:58:54;97486.41;;;20.23;31.44
6532;BME280;3299;42.004;24.868;2023-03-08T14:01:23;97477.59;;;20.31;31.24
6532;BME280;3299;42.004;24.868;2023-03-08T14:03:53;97471.81;;;20.21;32.36
6532;BME280;3299;42.004;24.868;2023-03-08T14:06:29;97523.00;;;20.25;33.48
6532;BME280;3299;42.004;24.868;2023-03-08T14:08:56;97503.78;;;19.89;33.46
6532;BME280;3299;42.004;24.868;2023-03-08T14:11:51;97467.94;;;19.46;33.30
6532;BME280;3299;42.004;24.868;2023-03-08T14:14:26;97454.44;;;19.05;34.11
6532;BME280;3299;42.004;24.868;2023-03-08T14:16:53;97491.53;;;19.17;33.92
6532;BME280;3299;42.004;24.868;2023-03-08T14:19:31;97459.91;;;18.67;34.35
6532;BME280;3299;42.004;24.868;2023-03-08T14:22:03;97463.09;;;18.62;34.54
6532;BME280;3299;42.004;24.868;2023-03-08T14:24:34;97452.03;;;18.52;35.13
6532;BME280;3299;42.004;24.868;2023-03-08T14:27:24;97495.47;;;18.47;36.44
6532;BME280;3299;42.004;24.868;2023-03-08T14:30:00;97481.50;;;18.32;36.50
6532;BME280;3299;42.004;24.868;2023-03-08T14:32:30;97438.16;;;18.07;35.19
6532;BME280;3299;42.004;24.868;2023-03-08T14:35:24;97484.28;;;18.08;36.80
6532;BME280;3299;42.004;24.868;2023-03-08T14:37:51;97483.81;;;18.04;37.19
6532;BME280;3299;42.004;24.868;2023-03-08T14:40:29;97451.97;;;17.70;35.25
6532;BME280;3299;42.004;24.868;2023-03-08T14:43:00;97445.59;;;17.65;35.12
6532;BME280;3299;42.004;24.868;2023-03-08T14:46:21;97408.03;;;17.27;36.21
6532;BME280;3299;42.004;24.868;2023-03-08T14:48:40;97454.66;;;17.54;36.48
6532;BME280;3299;42.004;24.868;2023-03-08T14:53:55;97445.22;;;17.37;35.14
6532;BME280;3299;42.004;24.868;2023-03-08T14:56:21;97492.41;;;17.60;35.45